sensor_id;sensor_type;location;lat;lon;timestamp;temperature;humidity
61807;DHT22;47726;52.766;6.606;2023-04-25T00:01:55;7.70;99.90
61807;DHT22;47726;52.766;6.606;2023-04-25T00:04:22;7.60;99.90
61807;DHT22;47726;52.766;6.606;2023-04-25T00:06:47;7.60;99.90
61807;DHT22;47726;52.766;6.606;2023-04-25T00:09:13;7.60;99.90
61807;DHT22;47726;52.766;6.606;2023-04-25T00:11:40;7.60;99.90
61807;DHT22;47726;52.766;6.606;2023-04-25T00:14:06;7.50;99.90
61807;DHT22;47726;52.766;6.606;2023-04-25T00:16:32;7.60;99.90
61807;DHT22;47726;52.766;6.606;2023-04-25T00:18:59;7.50;99.90
61807;DHT22;47726;52.766;6.606;2023-04-25T00:21:24;7.50;99.90
61807;DHT22;47726;52.766;6.606;2023-04-25T00:23:53;7.50;99.90
61807;DHT22;47726;52.766;6.606;2023-04-25T00:26:19;7.50;99.90
61807;DHT22;47726;52.766;6.606;2023-04-25T00:28:46;7.50;99.90
61807;DHT22;47726;52.766;6.606;2023-04-25T00:31:12;7.40;99.90
61807;DHT22;47726;52.766;6.606;2023-04-25T00:33:38;7.40;99.90
61807;DHT22;47726;52.766;6.606;2023-04-25T00:36:04;7.40;99.90
61807;DHT22;47726;52.766;6.606;2023-04-25T00:38:29;7.30;99.90
61807;DHT22;47726;52.766;6.606;2023-04-25T00:40:55;7.30;99.90
61807;DHT22;47726;52.766;6.606;2023-04-25T00:43:21;7.20;99.90
61807;DHT22;47726;52.766;6.606;2023-04-25T00:45:47;7.20;99.90
61807;DHT22;47726;52.766;6.606;2023-04-25T00:48:14;7.20;99.90
61807;DHT22;47726;52.766;6.606;2023-04-25T00:50:40;7.10;99.90
61807;DHT22;47726;52.766;6.606;2023-04-25T00:53:06;7.10;99.90
61807;DHT22;47726;52.766;6.606;2023-04-25T00:55:33;7.10;99.90
61807;DHT22;47726;52.766;6.606;2023-04-25T00:57:59;7.00;99.90
61807;DHT22;47726;52.766;6.606;2023-04-25T01:00:25;7.00;99.90
61807;DHT22;47726;52.766;6.606;2023-04-25T01:02:52;7.00;99.90
61807;DHT22;47726;52.766;6.606;2023-04-25T01:05:17;7.10;99.90
61807;DHT22;47726;52.766;6.606;2023-04-25T01:07:44;7.00;99.90
61807;DHT22;47726;52.766;6.606;2023-04-25T01:10:10;7.00;99.90
61807;DHT22;47726;52.766;6.606;2023-04-25T01:12:36;7.00;99.90
61807;DHT22;47726;52.766;6.606;2023-04-25T01:15:02;7.00;99.90
61807;DHT22;47726;52.766;6.606;2023-04-25T01:17:29;7.00;99.90
61807;DHT22;47726;52.766;6.606;2023-04-25T01:19:54;7.00;99.90
61807;DHT22;47726;52.766;6.606;2023-04-25T01:22:20;7.00;99.90
61807;DHT22;47726;52.766;6.606;2023-04-25T01:24:46;7.00;99.90
61807;DHT22;47726;52.766;6.606;2023-04-25T01:27:12;7.00;99.90
61807;DHT22;47726;52.766;6.606;2023-04-25T01:29:38;7.00;99.90
61807;DHT22;47726;52.766;6.606;2023-04-25T01:32:05;7.00;99.90
61807;DHT22;47726;52.766;6.606;2023-04-25T01:34:31;7.00;99.90
61807;DHT22;47726;52.766;6.606;2023-04-25T01:36:56;7.00;99.90
61807;DHT22;47726;52.766;6.606;2023-04-25T01:39:24;7.00;99.90
61807;DHT22;47726;52.766;6.606;2023-04-25T01:41:50;7.00;99.90
61807;DHT22;47726;52.766;6.606;2023-04-25T01:44:16;7.10;99.90
61807;DHT22;47726;52.766;6.606;2023-04-25T01:46:42;7.00;99.90
61807;DHT22;47726;52.766;6.606;2023-04-25T01:49:07;7.10;99.90
61807;DHT22;47726;52.766;6.606;2023-04-25T01:51:33;7.00;99.90
61807;DHT22;47726;52.766;6.606;2023-04-25T01:53:59;7.10;99.90
61807;DHT22;47726;52.766;6.606;2023-04-25T01:56:29;7.10;99.90
61807;DHT22;47726;52.766;6.606;2023-04-25T01:58:55;7.10;99.90
61807;DHT22;47726;52.766;6.606;2023-04-25T02:01:20;7.00;99.90
61807;DHT22;47726;52.766;6.606;2023-04-25T02:03:46;7.00;99.90
61807;DHT22;47726;52.766;6.606;2023-04-25T02:06:11;7.00;99.90
61807;DHT22;47726;52.766;6.606;2023-04-25T02:08:37;7.00;99.90
61807;DHT22;47726;52.766;6.606;2023-04-25T02:11:02;7.00;99.90
61807;DHT22;47726;52.766;6.606;2023-04-25T02:13:28;7.00;99.90
61807;DHT22;47726;52.766;6.606;2023-04-25T02:15:54;7.00;99.90
61807;DHT22;47726;52.766;6.606;2023-04-25T02:18:19;6.90;99.90
61807;DHT22;47726;52.766;6.606;2023-04-25T02:20:47;6.90;99.90
61807;DHT22;47726;52.766;6.606;2023-04-25T02:23:12;6.90;99.90
61807;DHT22;47726;52.766;6.606;2023-04-25T02:25:38;6.90;99.90
61807;DHT22;47726;52.766;6.606;2023-04-25T02:28:04;6.80;99.90
61807;DHT22;47726;52.766;6.606;2023-04-25T02:30:30;6.80;99.90
61807;DHT22;47726;52.766;6.606;2023-04-25T02:32:55;6.90;99.90
61807;DHT22;47726;52.766;6.606;2023-04-25T02:35:21;6.80;99.90
61807;DHT22;47726;52.766;6.606;2023-04-25T02:37:47;6.80;99.90
61807;DHT22;47726;52.766;6.606;2023-04-25T02:40:12;6.80;99.90
61807;DHT22;47726;52.766;6.606;2023-04-25T02:42:38;6.80;99.90
61807;DHT22;47726;52.766;6.606;2023-04-25T02:45:04;6.80;99.90
61807;DHT22;47726;52.766;6.606;2023-04-25T02:47:30;6.70;99.90
61807;DHT22;47726;52.766;6.606;2023-04-25T02:49:55;6.80;99.90
61807;DHT22;47726;52.766;6.606;2023-04-25T02:52:21;6.80;99.90
61807;DHT22;47726;52.766;6.606;2023-04-25T02:54:47;6.70;99.90
61807;DHT22;47726;52.766;6.606;2023-04-25T02:57:12;6.70;99.90
61807;DHT22;47726;52.766;6.606;2023-04-25T02:59:38;6.70;99.90
61807;DHT22;47726;52.766;6.606;2023-04-25T03:02:03;6.70;99.90
61807;DHT22;47726;52.766;6.606;2023-04-25T03:04:29;6.70;99.90
61807;DHT22;47726;52.766;6.606;2023-04-25T03:06:55;6.70;99.90
61807;DHT22;47726;52.766;6.606;2023-04-25T03:09:21;6.70;99.90
61807;DHT22;47726;52.766;6.606;2023-04-25T03:11:46;6.70;99.90
61807;DHT22;47726;52.766;6.606;2023-04-25T03:14:13;6.70;99.90
61807;DHT22;47726;52.766;6.606;2023-04-25T03:16:38;6.70;99.90
61807;DHT22;47726;52.766;6.606;2023-04-25T03:19:04;6.70;99.90
61807;DHT22;47726;52.766;6.606;2023-04-25T03:21:31;6.70;99.90
61807;DHT22;47726;52.766;6.606;2023-04-25T03:23:58;6.70;99.90
61807;DHT22;47726;52.766;6.606;2023-04-25T03:26:24;6.70;99.90
61807;DHT22;47726;52.766;6.606;2023-04-25T03:28:50;6.70;99.90
61807;DHT22;47726;52.766;6.606;2023-04-25T03:31:15;6.70;99.90
61807;DHT22;47726;52.766;6.606;2023-04-25T03:33:41;6.60;99.90
61807;DHT22;47726;52.766;6.606;2023-04-25T03:36:07;6.60;99.90
61807;DHT22;47726;52.766;6.606;2023-04-25T03:38:33;6.60;99.90
61807;DHT22;47726;52.766;6.606;2023-04-25T03:40:58;6.60;99.90
61807;DHT22;47726;52.766;6.606;2023-04-25T03:43:24;6.60;99.90
61807;DHT22;47726;52.766;6.606;2023-04-25T03:45:49;6.60;99.90
61807;DHT22;47726;52.766;6.606;2023-04-25T03:48:15;6.50;99.90
61807;DHT22;47726;52.766;6.606;2023-04-25T03:50:41;6.50;99.90
61807;DHT22;47726;52.766;6.606;2023-04-25T03:53:06;6.50;99.90
61807;DHT22;47726;52.766;6.606;2023-04-25T03:55:32;6.30;99.90
61807;DHT22;47726;52.766;6.606;2023-04-25T03:57:59;6.40;99.90
61807;DHT22;47726;52.766;6.606;2023-04-25T04:00:25;6.30;99.90
61807;DHT22;47726;52.766;6.606;2023-04-25T04:02:50;6.30;99.90
61807;DHT22;47726;52.766;6.606;2023-04-25T04:05:16;6.30;99.90
61807;DHT22;47726;52.766;6.606;2023-04-25T04:07:42;6.30;99.90
61807;DHT22;47726;52.766;6.606;2023-04-25T04:10:09;6.30;99.90
61807;DHT22;47726;52.766;6.606;2023-04-25T04:12:35;6.20;99.90
61807;DHT22;47726;52.766;6.606;2023-04-25T04:15:04;6.20;99.90
61807;DHT22;47726;52.766;6.606;2023-04-25T04:17:30;6.20;99.90
61807;DHT22;47726;52.766;6.606;2023-04-25T04:19:56;6.20;99.90
61807;DHT22;47726;52.766;6.606;2023-04-25T04:22:22;6.20;99.90
61807;DHT22;47726;52.766;6.606;2023-04-25T04:24:48;6.20;99.90
61807;DHT22;47726;52.766;6.606;2023-04-25T04:27:15;6.20;99.90
61807;DHT22;47726;52.766;6.606;2023-04-25T04:29:42;6.20;99.90
61807;DHT22;47726;52.766;6.606;2023-04-25T04:32:08;6.20;99.90
61807;DHT22;47726;52.766;6.606;2023-04-25T04:34:34;6.20;99.90
61807;DHT22;47726;52.766;6.606;2023-04-25T04:37:00;6.20;99.90
61807;DHT22;47726;52.766;6.606;2023-04-25T04:39:25;6.20;99.90
61807;DHT22;47726;52.766;6.606;2023-04-25T04:41:51;6.20;99.90
61807;DHT22;47726;52.766;6.606;2023-04-25T04:44:17;6.20;99.90
61807;DHT22;47726;52.766;6.606;2023-04-25T04:46:42;6.20;99.90
61807;DHT22;47726;52.766;6.606;2023-04-25T04:49:10;6.20;99.90
61807;DHT22;47726;52.766;6.606;2023-04-25T04:51:36;6.20;99.90
61807;DHT22;47726;52.766;6.606;2023-04-25T04:54:03;6.20;99.90
61807;DHT22;47726;52.766;6.606;2023-04-25T04:56:29;6.20;99.90
61807;DHT22;47726;52.766;6.606;2023-04-25T04:58:56;6.20;99.90
61807;DHT22;47726;52.766;6.606;2023-04-25T05:01:22;6.20;99.90
61807;DHT22;47726;52.766;6.606;2023-04-25T05:03:48;6.20;99.90
61807;DHT22;47726;52.766;6.606;2023-04-25T05:06:14;6.30;99.90
61807;DHT22;47726;52.766;6.606;2023-04-25T05:08:39;6.30;99.90
61807;DHT22;47726;52.766;6.606;2023-04-25T05:11:05;6.30;99.90
61807;DHT22;47726;52.766;6.606;2023-04-25T05:13:31;6.30;99.90
61807;DHT22;47726;52.766;6.606;2023-04-25T05:15:56;6.30;99.90
61807;DHT22;47726;52.766;6.606;2023-04-25T05:18:22;6.40;99.90
61807;DHT22;47726;52.766;6.606;2023-04-25T05:20:48;6.40;99.90
61807;DHT22;47726;52.766;6.606;2023-04-25T05:23:13;6.40;99.90
61807;DHT22;47726;52.766;6.606;2023-04-25T05:25:39;6.40;99.90
61807;DHT22;47726;52.766;6.606;2023-04-25T05:28:04;6.40;99.90
61807;DHT22;47726;52.766;6.606;2023-04-25T05:30:31;6.50;99.90
61807;DHT22;47726;52.766;6.606;2023-04-25T05:32:56;6.50;99.90
61807;DHT22;47726;52.766;6.606;2023-04-25T05:35:22;6.50;99.90
61807;DHT22;47726;52.766;6.606;2023-04-25T05:37:47;6.60;99.90
61807;DHT22;47726;52.766;6.606;2023-04-25T05:40:13;6.60;99.90
61807;DHT22;47726;52.766;6.606;2023-04-25T05:42:38;6.60;99.90
61807;DHT22;47726;52.766;6.606;2023-04-25T05:45:05;6.60;99.90
61807;DHT22;47726;52.766;6.606;2023-04-25T05:47:30;6.70;99.90
61807;DHT22;47726;52.766;6.606;2023-04-25T05:49:56;6.80;99.90
61807;DHT22;47726;52.766;6.606;2023-04-25T05:52:22;6.80;99.90
61807;DHT22;47726;52.766;6.606;2023-04-25T05:54:48;6.80;99.90
61807;DHT22;47726;52.766;6.606;2023-04-25T05:57:23;7.00;99.90
61807;DHT22;47726;52.766;6.606;2023-04-25T05:59:49;7.00;99.90
61807;DHT22;47726;52.766;6.606;2023-04-25T06:02:14;7.10;99.90
61807;DHT22;47726;52.766;6.606;2023-04-25T06:04:40;7.20;99.90
61807;DHT22;47726;52.766;6.606;2023-04-25T06:07:06;7.20;99.90
61807;DHT22;47726;52.766;6.606;2023-04-25T06:09:31;7.20;99.90
61807;DHT22;47726;52.766;6.606;2023-04-25T06:11:57;7.20;99.90
61807;DHT22;47726;52.766;6.606;2023-04-25T06:14:22;7.20;99.90
61807;DHT22;47726;52.766;6.606;2023-04-25T06:16:48;7.30;99.90
61807;DHT22;47726;52.766;6.606;2023-04-25T06:19:13;7.30;99.90
61807;DHT22;47726;52.766;6.606;2023-04-25T06:21:39;7.20;99.90
61807;DHT22;47726;52.766;6.606;2023-04-25T06:24:05;7.20;99.90
61807;DHT22;47726;52.766;6.606;2023-04-25T06:26:30;7.20;99.90
61807;DHT22;47726;52.766;6.606;2023-04-25T06:28:56;7.20;99.90
61807;DHT22;47726;52.766;6.606;2023-04-25T06:31:21;7.30;99.90
61807;DHT22;47726;52.766;6.606;2023-04-25T06:33:47;7.30;99.90
61807;DHT22;47726;52.766;6.606;2023-04-25T06:36:13;7.40;99.90
61807;DHT22;47726;52.766;6.606;2023-04-25T06:38:39;7.40;99.90
61807;DHT22;47726;52.766;6.606;2023-04-25T06:41:05;7.50;99.90
61807;DHT22;47726;52.766;6.606;2023-04-25T06:43:31;7.50;99.90
61807;DHT22;47726;52.766;6.606;2023-04-25T06:45:59;7.60;99.90
61807;DHT22;47726;52.766;6.606;2023-04-25T06:48:26;7.70;99.90
61807;DHT22;47726;52.766;6.606;2023-04-25T06:50:52;8.00;99.90
61807;DHT22;47726;52.766;6.606;2023-04-25T06:53:17;8.30;99.90
61807;DHT22;47726;52.766;6.606;2023-04-25T06:55:44;8.60;99.90
61807;DHT22;47726;52.766;6.606;2023-04-25T06:58:09;8.80;99.90
61807;DHT22;47726;52.766;6.606;2023-04-25T07:00:35;9.10;99.90
61807;DHT22;47726;52.766;6.606;2023-04-25T07:03:01;9.50;99.90
61807;DHT22;47726;52.766;6.606;2023-04-25T07:05:27;9.80;99.90
61807;DHT22;47726;52.766;6.606;2023-04-25T07:07:53;10.00;99.90
61807;DHT22;47726;52.766;6.606;2023-04-25T07:10:18;10.30;99.90
61807;DHT22;47726;52.766;6.606;2023-04-25T07:12:44;10.30;99.90
61807;DHT22;47726;52.766;6.606;2023-04-25T07:15:10;10.20;99.90
61807;DHT22;47726;52.766;6.606;2023-04-25T07:17:37;10.10;99.90
61807;DHT22;47726;52.766;6.606;2023-04-25T07:20:03;9.90;99.90
61807;DHT22;47726;52.766;6.606;2023-04-25T07:22:29;9.80;99.90
61807;DHT22;47726;52.766;6.606;2023-04-25T07:24:55;9.60;99.90
61807;DHT22;47726;52.766;6.606;2023-04-25T07:27:20;9.50;99.90
61807;DHT22;47726;52.766;6.606;2023-04-25T07:29:46;9.40;99.90
61807;DHT22;47726;52.766;6.606;2023-04-25T07:32:11;9.20;99.90
61807;DHT22;47726;52.766;6.606;2023-04-25T07:34:38;9.30;99.90
61807;DHT22;47726;52.766;6.606;2023-04-25T07:37:05;9.20;99.90
61807;DHT22;47726;52.766;6.606;2023-04-25T07:39:31;9.20;99.90
61807;DHT22;47726;52.766;6.606;2023-04-25T07:41:56;9.30;99.90
61807;DHT22;47726;52.766;6.606;2023-04-25T07:44:24;9.30;99.90
61807;DHT22;47726;52.766;6.606;2023-04-25T07:46:49;9.40;99.90
61807;DHT22;47726;52.766;6.606;2023-04-25T07:49:15;9.80;99.90
61807;DHT22;47726;52.766;6.606;2023-04-25T07:51:41;10.20;99.90
61807;DHT22;47726;52.766;6.606;2023-04-25T07:54:09;10.60;99.90
61807;DHT22;47726;52.766;6.606;2023-04-25T07:56:35;10.90;99.90
61807;DHT22;47726;52.766;6.606;2023-04-25T07:59:00;11.20;99.90
61807;DHT22;47726;52.766;6.606;2023-04-25T08:01:26;11.50;99.90
61807;DHT22;47726;52.766;6.606;2023-04-25T08:03:52;11.80;99.90
61807;DHT22;47726;52.766;6.606;2023-04-25T08:06:18;11.90;99.90
61807;DHT22;47726;52.766;6.606;2023-04-25T08:08:44;12.20;99.90
61807;DHT22;47726;52.766;6.606;2023-04-25T08:11:09;12.40;99.90
61807;DHT22;47726;52.766;6.606;2023-04-25T08:13:35;12.60;99.90
61807;DHT22;47726;52.766;6.606;2023-04-25T08:16:01;12.70;99.90
61807;DHT22;47726;52.766;6.606;2023-04-25T08:18:27;12.90;99.90
61807;DHT22;47726;52.766;6.606;2023-04-25T08:20:52;12.90;99.90
61807;DHT22;47726;52.766;6.606;2023-04-25T08:23:18;12.70;99.90
61807;DHT22;47726;52.766;6.606;2023-04-25T08:25:43;12.60;99.90
61807;DHT22;47726;52.766;6.606;2023-04-25T08:28:09;12.60;99.90
61807;DHT22;47726;52.766;6.606;2023-04-25T08:30:34;12.60;99.90
61807;DHT22;47726;52.766;6.606;2023-04-25T08:33:00;12.70;99.90
61807;DHT22;47726;52.766;6.606;2023-04-25T08:35:25;12.90;99.90
61807;DHT22;47726;52.766;6.606;2023-04-25T08:37:51;13.00;99.90
61807;DHT22;47726;52.766;6.606;2023-04-25T08:40:17;13.20;99.90
61807;DHT22;47726;52.766;6.606;2023-04-25T08:42:42;13.40;99.90
61807;DHT22;47726;52.766;6.606;2023-04-25T08:45:09;13.40;99.90
61807;DHT22;47726;52.766;6.606;2023-04-25T08:47:35;13.30;99.90
61807;DHT22;47726;52.766;6.606;2023-04-25T08:50:04;13.10;99.90
61807;DHT22;47726;52.766;6.606;2023-04-25T08:52:43;12.80;99.90
61807;DHT22;47726;52.766;6.606;2023-04-25T08:55:10;12.60;99.90
61807;DHT22;47726;52.766;6.606;2023-04-25T08:57:37;12.40;99.90
61807;DHT22;47726;52.766;6.606;2023-04-25T09:00:03;12.30;99.90
61807;DHT22;47726;52.766;6.606;2023-04-25T09:02:29;12.20;99.90
61807;DHT22;47726;52.766;6.606;2023-04-25T09:04:55;12.30;99.90
61807;DHT22;47726;52.766;6.606;2023-04-25T09:07:21;12.60;99.90
61807;DHT22;47726;52.766;6.606;2023-04-25T09:09:47;12.80;99.90
61807;DHT22;47726;52.766;6.606;2023-04-25T09:12:13;13.10;99.90
61807;DHT22;47726;52.766;6.606;2023-04-25T09:14:38;13.30;99.90
61807;DHT22;47726;52.766;6.606;2023-04-25T09:17:04;13.40;99.90
61807;DHT22;47726;52.766;6.606;2023-04-25T09:19:34;13.60;99.90
61807;DHT22;47726;52.766;6.606;2023-04-25T09:22:02;13.80;99.90
61807;DHT22;47726;52.766;6.606;2023-04-25T09:24:36;14.00;99.90
61807;DHT22;47726;52.766;6.606;2023-04-25T09:27:06;14.00;99.90
61807;DHT22;47726;52.766;6.606;2023-04-25T09:29:34;13.90;99.90
61807;DHT22;47726;52.766;6.606;2023-04-25T09:32:16;13.90;99.80
61807;DHT22;47726;52.766;6.606;2023-04-25T09:34:44;13.70;97.70
61807;DHT22;47726;52.766;6.606;2023-04-25T09:37:10;13.30;98.00
61807;DHT22;47726;52.766;6.606;2023-04-25T09:39:39;13.00;99.60
61807;DHT22;47726;52.766;6.606;2023-04-25T09:42:05;12.60;99.90
61807;DHT22;47726;52.766;6.606;2023-04-25T09:44:31;12.10;99.90
61807;DHT22;47726;52.766;6.606;2023-04-25T09:46:57;11.80;99.90
61807;DHT22;47726;52.766;6.606;2023-04-25T09:49:25;11.50;99.90
61807;DHT22;47726;52.766;6.606;2023-04-25T09:51:58;11.30;99.90
61807;DHT22;47726;52.766;6.606;2023-04-25T09:54:25;11.10;99.90
61807;DHT22;47726;52.766;6.606;2023-04-25T09:56:52;10.90;99.90
61807;DHT22;47726;52.766;6.606;2023-04-25T09:59:21;10.90;99.90
61807;DHT22;47726;52.766;6.606;2023-04-25T10:01:50;11.00;99.90
61807;DHT22;47726;52.766;6.606;2023-04-25T10:04:21;11.30;99.90
61807;DHT22;47726;52.766;6.606;2023-04-25T10:06:49;11.60;99.90
61807;DHT22;47726;52.766;6.606;2023-04-25T10:09:16;11.80;99.90
61807;DHT22;47726;52.766;6.606;2023-04-25T10:11:45;12.20;99.90
61807;DHT22;47726;52.766;6.606;2023-04-25T10:14:13;12.30;99.90
61807;DHT22;47726;52.766;6.606;2023-04-25T10:16:40;12.40;99.90
61807;DHT22;47726;52.766;6.606;2023-04-25T10:19:06;12.40;99.90
61807;DHT22;47726;52.766;6.606;2023-04-25T10:21:33;12.20;99.90
61807;DHT22;47726;52.766;6.606;2023-04-25T10:24:02;12.00;99.90
61807;DHT22;47726;52.766;6.606;2023-04-25T10:26:28;11.80;99.90
61807;DHT22;47726;52.766;6.606;2023-04-25T10:29:02;11.50;99.90
61807;DHT22;47726;52.766;6.606;2023-04-25T10:31:29;11.40;99.90
61807;DHT22;47726;52.766;6.606;2023-04-25T10:33:56;11.20;99.90
61807;DHT22;47726;52.766;6.606;2023-04-25T10:36:23;11.00;99.90
61807;DHT22;47726;52.766;6.606;2023-04-25T10:38:50;10.90;99.90
61807;DHT22;47726;52.766;6.606;2023-04-25T10:41:18;10.80;99.90
61807;DHT22;47726;52.766;6.606;2023-04-25T10:43:48;10.80;99.90
61807;DHT22;47726;52.766;6.606;2023-04-25T10:46:25;10.80;99.90
61807;DHT22;47726;52.766;6.606;2023-04-25T10:48:55;10.90;99.90
61807;DHT22;47726;52.766;6.606;2023-04-25T10:51:34;11.20;99.90
61807;DHT22;47726;52.766;6.606;2023-04-25T10:54:07;11.50;99.90
61807;DHT22;47726;52.766;6.606;2023-04-25T10:59:12;11.60;99.90
61807;DHT22;47726;52.766;6.606;2023-04-25T11:01:43;11.60;99.90
61807;DHT22;47726;52.766;6.606;2023-04-25T11:04:28;11.50;99.90
61807;DHT22;47726;52.766;6.606;2023-04-25T11:09:37;11.20;99.90
61807;DHT22;47726;52.766;6.606;2023-04-25T11:12:03;11.20;99.90
61807;DHT22;47726;52.766;6.606;2023-04-25T11:14:30;11.30;99.90
61807;DHT22;47726;52.766;6.606;2023-04-25T11:16:57;11.60;99.90
61807;DHT22;47726;52.766;6.606;2023-04-25T11:19:24;11.80;99.90
61807;DHT22;47726;52.766;6.606;2023-04-25T11:21:50;11.90;99.90
61807;DHT22;47726;52.766;6.606;2023-04-25T11:24:16;12.00;99.90
61807;DHT22;47726;52.766;6.606;2023-04-25T11:26:43;12.10;99.90
61807;DHT22;47726;52.766;6.606;2023-04-25T11:29:09;12.10;99.90
61807;DHT22;47726;52.766;6.606;2023-04-25T11:31:34;12.10;99.90
61807;DHT22;47726;52.766;6.606;2023-04-25T11:34:00;12.20;99.90
61807;DHT22;47726;52.766;6.606;2023-04-25T11:36:26;12.30;99.90
61807;DHT22;47726;52.766;6.606;2023-04-25T11:38:53;12.40;99.90
61807;DHT22;47726;52.766;6.606;2023-04-25T11:41:19;12.50;99.90
61807;DHT22;47726;52.766;6.606;2023-04-25T11:43:45;12.50;99.90
61807;DHT22;47726;52.766;6.606;2023-04-25T11:46:11;12.50;99.90
61807;DHT22;47726;52.766;6.606;2023-04-25T11:48:38;12.60;99.90
61807;DHT22;47726;52.766;6.606;2023-04-25T11:51:04;12.70;99.90
61807;DHT22;47726;52.766;6.606;2023-04-25T11:53:30;12.70;99.90
61807;DHT22;47726;52.766;6.606;2023-04-25T11:55:56;12.70;99.90
61807;DHT22;47726;52.766;6.606;2023-04-25T11:58:21;12.60;99.90
61807;DHT22;47726;52.766;6.606;2023-04-25T12:00:47;12.40;99.90
61807;DHT22;47726;52.766;6.606;2023-04-25T12:03:13;12.30;99.90
61807;DHT22;47726;52.766;6.606;2023-04-25T12:05:38;12.20;99.90
61807;DHT22;47726;52.766;6.606;2023-04-25T12:08:12;12.10;99.90
61807;DHT22;47726;52.766;6.606;2023-04-25T12:10:43;11.90;99.90
61807;DHT22;47726;52.766;6.606;2023-04-25T12:13:38;11.80;99.90
61807;DHT22;47726;52.766;6.606;2023-04-25T12:16:04;11.70;99.90
61807;DHT22;47726;52.766;6.606;2023-04-25T12:18:29;11.70;99.90
61807;DHT22;47726;52.766;6.606;2023-04-25T12:20:55;11.70;99.90
61807;DHT22;47726;52.766;6.606;2023-04-25T12:23:28;11.80;99.90
61807;DHT22;47726;52.766;6.606;2023-04-25T12:25:53;11.80;99.90
61807;DHT22;47726;52.766;6.606;2023-04-25T12:28:24;11.80;99.90
61807;DHT22;47726;52.766;6.606;2023-04-25T12:33:18;11.80;99.90
61807;DHT22;47726;52.766;6.606;2023-04-25T12:35:43;11.90;99.90
61807;DHT22;47726;52.766;6.606;2023-04-25T12:38:09;12.00;99.90
61807;DHT22;47726;52.766;6.606;2023-04-25T12:40:35;12.00;99.90
61807;DHT22;47726;52.766;6.606;2023-04-25T12:43:00;12.10;99.90
61807;DHT22;47726;52.766;6.606;2023-04-25T12:45:26;12.00;99.90
61807;DHT22;47726;52.766;6.606;2023-04-25T12:47:51;12.10;99.90
61807;DHT22;47726;52.766;6.606;2023-04-25T12:50:17;12.20;99.90
61807;DHT22;47726;52.766;6.606;2023-04-25T12:52:42;12.20;99.90
61807;DHT22;47726;52.766;6.606;2023-04-25T12:55:08;12.30;99.90
61807;DHT22;47726;52.766;6.606;2023-04-25T12:57:33;12.30;99.90
61807;DHT22;47726;52.766;6.606;2023-04-25T12:59:59;12.30;99.90
61807;DHT22;47726;52.766;6.606;2023-04-25T13:02:25;12.40;99.90
61807;DHT22;47726;52.766;6.606;2023-04-25T13:04:51;12.40;99.90
61807;DHT22;47726;52.766;6.606;2023-04-25T13:07:17;12.30;99.90
61807;DHT22;47726;52.766;6.606;2023-04-25T13:09:42;12.30;99.90
61807;DHT22;47726;52.766;6.606;2023-04-25T13:12:08;12.30;99.90
61807;DHT22;47726;52.766;6.606;2023-04-25T13:14:34;12.30;99.90
61807;DHT22;47726;52.766;6.606;2023-04-25T13:16:59;12.30;99.90
61807;DHT22;47726;52.766;6.606;2023-04-25T13:19:25;12.30;99.90
61807;DHT22;47726;52.766;6.606;2023-04-25T13:21:51;12.30;99.90
61807;DHT22;47726;52.766;6.606;2023-04-25T13:24:16;12.30;99.90
61807;DHT22;47726;52.766;6.606;2023-04-25T13:26:42;12.20;99.90
61807;DHT22;47726;52.766;6.606;2023-04-25T13:29:08;12.10;99.90
61807;DHT22;47726;52.766;6.606;2023-04-25T13:31:34;11.90;99.90
61807;DHT22;47726;52.766;6.606;2023-04-25T13:34:00;11.80;99.90
61807;DHT22;47726;52.766;6.606;2023-04-25T13:36:25;11.70;99.90
61807;DHT22;47726;52.766;6.606;2023-04-25T13:38:51;11.70;99.90
61807;DHT22;47726;52.766;6.606;2023-04-25T13:41:16;11.70;99.90
61807;DHT22;47726;52.766;6.606;2023-04-25T13:43:44;11.70;99.90
61807;DHT22;47726;52.766;6.606;2023-04-25T13:46:10;11.70;99.90
61807;DHT22;47726;52.766;6.606;2023-04-25T13:48:37;11.70;99.90
61807;DHT22;47726;52.766;6.606;2023-04-25T13:51:02;11.80;99.90
61807;DHT22;47726;52.766;6.606;2023-04-25T13:53:28;11.80;99.90
61807;DHT22;47726;52.766;6.606;2023-04-25T13:55:53;11.90;99.90
61807;DHT22;47726;52.766;6.606;2023-04-25T13:58:19;12.00;99.90
61807;DHT22;47726;52.766;6.606;2023-04-25T14:00:45;12.10;99.90
61807;DHT22;47726;52.766;6.606;2023-04-25T14:03:12;12.10;99.90
61807;DHT22;47726;52.766;6.606;2023-04-25T14:05:37;12.10;99.90
61807;DHT22;47726;52.766;6.606;2023-04-25T14:08:05;12.10;99.90
61807;DHT22;47726;52.766;6.606;2023-04-25T14:10:30;12.20;99.90
61807;DHT22;47726;52.766;6.606;2023-04-25T14:12:56;12.30;99.90
61807;DHT22;47726;52.766;6.606;2023-04-25T14:15:22;12.20;99.90
61807;DHT22;47726;52.766;6.606;2023-04-25T14:17:47;12.20;99.90
61807;DHT22;47726;52.766;6.606;2023-04-25T14:20:13;12.30;99.90
61807;DHT22;47726;52.766;6.606;2023-04-25T14:22:39;12.20;99.90
61807;DHT22;47726;52.766;6.606;2023-04-25T14:25:17;12.20;99.90
61807;DHT22;47726;52.766;6.606;2023-04-25T14:27:42;12.10;99.90
61807;DHT22;47726;52.766;6.606;2023-04-25T14:30:09;12.10;99.90
61807;DHT22;47726;52.766;6.606;2023-04-25T14:32:37;12.00;99.90
61807;DHT22;47726;52.766;6.606;2023-04-25T14:35:03;11.80;99.90
61807;DHT22;47726;52.766;6.606;2023-04-25T14:37:28;11.80;99.90
61807;DHT22;47726;52.766;6.606;2023-04-25T14:39:54;11.60;99.90
61807;DHT22;47726;52.766;6.606;2023-04-25T14:42:19;11.60;99.90
61807;DHT22;47726;52.766;6.606;2023-04-25T14:44:45;11.60;99.90
61807;DHT22;47726;52.766;6.606;2023-04-25T14:47:11;11.70;99.90
61807;DHT22;47726;52.766;6.606;2023-04-25T14:49:37;11.70;99.90
61807;DHT22;47726;52.766;6.606;2023-04-25T14:52:02;11.60;99.90
61807;DHT22;47726;52.766;6.606;2023-04-25T14:54:28;11.60;99.90
61807;DHT22;47726;52.766;6.606;2023-04-25T14:56:54;11.50;99.90
61807;DHT22;47726;52.766;6.606;2023-04-25T14:59:20;11.50;99.90
61807;DHT22;47726;52.766;6.606;2023-04-25T15:01:46;11.50;99.90
61807;DHT22;47726;52.766;6.606;2023-04-25T15:04:11;11.40;99.90
61807;DHT22;47726;52.766;6.606;2023-04-25T15:06:38;11.30;99.90
61807;DHT22;47726;52.766;6.606;2023-04-25T15:09:03;11.30;99.90
61807;DHT22;47726;52.766;6.606;2023-04-25T15:11:29;11.30;99.90
61807;DHT22;47726;52.766;6.606;2023-04-25T15:13:55;11.30;99.90
61807;DHT22;47726;52.766;6.606;2023-04-25T15:16:21;11.30;99.90
61807;DHT22;47726;52.766;6.606;2023-04-25T15:18:46;11.30;99.90
61807;DHT22;47726;52.766;6.606;2023-04-25T15:21:12;11.30;99.90
61807;DHT22;47726;52.766;6.606;2023-04-25T15:23:37;11.40;99.90
61807;DHT22;47726;52.766;6.606;2023-04-25T15:26:03;11.40;99.90
61807;DHT22;47726;52.766;6.606;2023-04-25T15:28:29;11.50;99.90
61807;DHT22;47726;52.766;6.606;2023-04-25T15:30:54;11.50;99.90
61807;DHT22;47726;52.766;6.606;2023-04-25T15:33:20;11.50;99.90
61807;DHT22;47726;52.766;6.606;2023-04-25T15:35:46;11.50;99.90
61807;DHT22;47726;52.766;6.606;2023-04-25T15:38:11;11.50;99.90
61807;DHT22;47726;52.766;6.606;2023-04-25T15:40:37;11.40;99.90